sensor_id;sensor_type;location;lat;lon;timestamp;temperature;humidity
10123;DHT22;5101;49.038;8.710;2023-11-19T00:00:29;9.40;99.90
10123;DHT22;5101;49.038;8.710;2023-11-19T00:02:55;9.50;99.90
10123;DHT22;5101;49.038;8.710;2023-11-19T00:05:20;9.50;99.90
10123;DHT22;5101;49.038;8.710;2023-11-19T00:07:46;9.40;99.90
10123;DHT22;5101;49.038;8.710;2023-11-19T00:10:16;9.50;99.90
10123;DHT22;5101;49.038;8.710;2023-11-19T00:12:45;9.40;99.90
10123;DHT22;5101;49.038;8.710;2023-11-19T00:15:14;9.40;99.90
10123;DHT22;5101;49.038;8.710;2023-11-19T00:17:41;9.40;99.90
10123;DHT22;5101;49.038;8.710;2023-11-19T00:20:11;9.40;99.90
10123;DHT22;5101;49.038;8.710;2023-11-19T00:22:37;9.40;99.90
10123;DHT22;5101;49.038;8.710;2023-11-19T00:25:03;9.40;99.90
10123;DHT22;5101;49.038;8.710;2023-11-19T00:27:30;9.40;99.90
10123;DHT22;5101;49.038;8.710;2023-11-19T00:29:55;9.50;99.90
10123;DHT22;5101;49.038;8.710;2023-11-19T00:32:22;9.50;99.90
10123;DHT22;5101;49.038;8.710;2023-11-19T00:34:47;9.50;99.90
10123;DHT22;5101;49.038;8.710;2023-11-19T00:37:16;9.50;99.90
10123;DHT22;5101;49.038;8.710;2023-11-19T00:39:42;9.50;99.90
10123;DHT22;5101;49.038;8.710;2023-11-19T00:42:09;9.50;99.90
10123;DHT22;5101;49.038;8.710;2023-11-19T00:44:35;9.60;99.90
10123;DHT22;5101;49.038;8.710;2023-11-19T00:47:01;9.60;99.90
10123;DHT22;5101;49.038;8.710;2023-11-19T00:49:27;9.60;99.90
10123;DHT22;5101;49.038;8.710;2023-11-19T00:51:52;9.60;99.90
10123;DHT22;5101;49.038;8.710;2023-11-19T00:54:18;9.60;99.90
10123;DHT22;5101;49.038;8.710;2023-11-19T00:56:43;9.70;99.90
10123;DHT22;5101;49.038;8.710;2023-11-19T00:59:10;9.70;99.90
10123;DHT22;5101;49.038;8.710;2023-11-19T01:01:35;9.70;99.90
10123;DHT22;5101;49.038;8.710;2023-11-19T01:04:01;9.70;99.90
10123;DHT22;5101;49.038;8.710;2023-11-19T01:06:30;9.70;99.90
10123;DHT22;5101;49.038;8.710;2023-11-19T01:08:56;9.70;99.90
10123;DHT22;5101;49.038;8.710;2023-11-19T01:11:22;9.60;99.90
10123;DHT22;5101;49.038;8.710;2023-11-19T01:13:49;9.70;99.90
10123;DHT22;5101;49.038;8.710;2023-11-19T01:16:15;9.60;99.90
10123;DHT22;5101;49.038;8.710;2023-11-19T01:18:40;9.60;99.90
10123;DHT22;5101;49.038;8.710;2023-11-19T01:21:06;9.70;99.90
10123;DHT22;5101;49.038;8.710;2023-11-19T01:23:31;9.80;99.90
10123;DHT22;5101;49.038;8.710;2023-11-19T01:25:58;9.60;99.90
10123;DHT22;5101;49.038;8.710;2023-11-19T01:28:23;9.70;99.90
10123;DHT22;5101;49.038;8.710;2023-11-19T01:30:52;9.70;99.90
10123;DHT22;5101;49.038;8.710;2023-11-19T01:33:18;9.70;99.90
10123;DHT22;5101;49.038;8.710;2023-11-19T01:35:44;9.70;99.90
10123;DHT22;5101;49.038;8.710;2023-11-19T01:38:09;9.80;99.90
10123;DHT22;5101;49.038;8.710;2023-11-19T01:40:35;9.80;99.90
10123;DHT22;5101;49.038;8.710;2023-11-19T01:43:02;9.80;99.90
10123;DHT22;5101;49.038;8.710;2023-11-19T01:45:29;9.90;99.90
10123;DHT22;5101;49.038;8.710;2023-11-19T01:47:56;10.00;99.90
10123;DHT22;5101;49.038;8.710;2023-11-19T01:50:23;10.10;99.90
10123;DHT22;5101;49.038;8.710;2023-11-19T01:52:53;10.20;99.90
10123;DHT22;5101;49.038;8.710;2023-11-19T01:55:20;10.30;99.90
10123;DHT22;5101;49.038;8.710;2023-11-19T01:57:47;10.50;99.90
10123;DHT22;5101;49.038;8.710;2023-11-19T02:00:13;10.60;99.90
10123;DHT22;5101;49.038;8.710;2023-11-19T02:02:40;10.70;99.90
10123;DHT22;5101;49.038;8.710;2023-11-19T02:05:06;10.80;99.90
10123;DHT22;5101;49.038;8.710;2023-11-19T02:07:32;10.90;99.90
10123;DHT22;5101;49.038;8.710;2023-11-19T02:09:57;11.00;99.90
10123;DHT22;5101;49.038;8.710;2023-11-19T02:12:28;11.00;99.90
10123;DHT22;5101;49.038;8.710;2023-11-19T02:14:54;11.10;99.90
10123;DHT22;5101;49.038;8.710;2023-11-19T02:17:30;11.20;99.90
10123;DHT22;5101;49.038;8.710;2023-11-19T02:20:00;11.20;99.90
10123;DHT22;5101;49.038;8.710;2023-11-19T02:22:25;11.30;99.90
10123;DHT22;5101;49.038;8.710;2023-11-19T02:24:54;11.30;99.90
10123;DHT22;5101;49.038;8.710;2023-11-19T02:27:54;11.40;99.90
10123;DHT22;5101;49.038;8.710;2023-11-19T02:30:21;11.40;99.90
10123;DHT22;5101;49.038;8.710;2023-11-19T02:32:58;11.40;99.90
10123;DHT22;5101;49.038;8.710;2023-11-19T02:35:27;11.50;99.90
10123;DHT22;5101;49.038;8.710;2023-11-19T02:37:54;11.50;99.90
10123;DHT22;5101;49.038;8.710;2023-11-19T02:40:19;11.50;99.90
10123;DHT22;5101;49.038;8.710;2023-11-19T02:42:45;11.50;99.90
10123;DHT22;5101;49.038;8.710;2023-11-19T02:45:11;11.60;99.90
10123;DHT22;5101;49.038;8.710;2023-11-19T02:47:43;11.60;99.90
10123;DHT22;5101;49.038;8.710;2023-11-19T02:50:11;11.70;99.90
10123;DHT22;5101;49.038;8.710;2023-11-19T02:52:46;11.70;99.90
10123;DHT22;5101;49.038;8.710;2023-11-19T02:55:12;11.70;99.90
10123;DHT22;5101;49.038;8.710;2023-11-19T02:57:41;11.70;99.90
10123;DHT22;5101;49.038;8.710;2023-11-19T03:02:43;11.80;99.90
10123;DHT22;5101;49.038;8.710;2023-11-19T03:05:14;11.80;99.90
10123;DHT22;5101;49.038;8.710;2023-11-19T03:07:44;11.80;99.90
10123;DHT22;5101;49.038;8.710;2023-11-19T03:10:10;11.80;99.90
10123;DHT22;5101;49.038;8.710;2023-11-19T03:12:39;11.80;99.90
10123;DHT22;5101;49.038;8.710;2023-11-19T03:15:05;11.80;99.90
10123;DHT22;5101;49.038;8.710;2023-11-19T03:17:30;11.90;99.90
10123;DHT22;5101;49.038;8.710;2023-11-19T03:19:56;11.90;99.90
10123;DHT22;5101;49.038;8.710;2023-11-19T03:22:22;11.90;99.90
10123;DHT22;5101;49.038;8.710;2023-11-19T03:24:47;11.90;99.90
10123;DHT22;5101;49.038;8.710;2023-11-19T03:27:15;11.90;99.90
10123;DHT22;5101;49.038;8.710;2023-11-19T03:29:41;11.90;99.90
10123;DHT22;5101;49.038;8.710;2023-11-19T03:32:06;11.90;99.90
10123;DHT22;5101;49.038;8.710;2023-11-19T03:34:32;12.00;99.90
10123;DHT22;5101;49.038;8.710;2023-11-19T03:36:57;12.00;99.90
10123;DHT22;5101;49.038;8.710;2023-11-19T03:39:23;12.00;99.90
10123;DHT22;5101;49.038;8.710;2023-11-19T03:41:50;12.00;99.90
10123;DHT22;5101;49.038;8.710;2023-11-19T03:44:16;12.00;99.90
10123;DHT22;5101;49.038;8.710;2023-11-19T03:46:42;12.00;99.90
10123;DHT22;5101;49.038;8.710;2023-11-19T03:49:07;12.00;99.90
10123;DHT22;5101;49.038;8.710;2023-11-19T03:51:33;12.10;99.90
10123;DHT22;5101;49.038;8.710;2023-11-19T03:54:00;12.10;99.90
10123;DHT22;5101;49.038;8.710;2023-11-19T03:56:26;12.10;99.90
10123;DHT22;5101;49.038;8.710;2023-11-19T03:58:52;12.10;99.90
10123;DHT22;5101;49.038;8.710;2023-11-19T04:01:18;12.10;99.90
10123;DHT22;5101;49.038;8.710;2023-11-19T04:03:43;12.10;99.90
10123;DHT22;5101;49.038;8.710;2023-11-19T04:06:09;12.10;99.90
10123;DHT22;5101;49.038;8.710;2023-11-19T04:08:35;12.10;99.90
10123;DHT22;5101;49.038;8.710;2023-11-19T04:11:02;12.10;99.90
10123;DHT22;5101;49.038;8.710;2023-11-19T04:13:28;12.10;99.90
10123;DHT22;5101;49.038;8.710;2023-11-19T04:15:53;12.10;99.90
10123;DHT22;5101;49.038;8.710;2023-11-19T04:18:19;12.10;99.90
10123;DHT22;5101;49.038;8.710;2023-11-19T04:20:44;12.10;99.90
10123;DHT22;5101;49.038;8.710;2023-11-19T04:23:10;12.20;99.90
10123;DHT22;5101;49.038;8.710;2023-11-19T04:25:36;12.20;99.90
10123;DHT22;5101;49.038;8.710;2023-11-19T04:28:02;12.20;99.90
10123;DHT22;5101;49.038;8.710;2023-11-19T04:30:28;12.20;99.90
10123;DHT22;5101;49.038;8.710;2023-11-19T04:32:53;12.20;99.90
10123;DHT22;5101;49.038;8.710;2023-11-19T04:35:19;12.20;99.90
10123;DHT22;5101;49.038;8.710;2023-11-19T04:37:44;12.20;99.90
10123;DHT22;5101;49.038;8.710;2023-11-19T04:40:10;12.30;99.90
10123;DHT22;5101;49.038;8.710;2023-11-19T04:42:37;12.30;99.90
10123;DHT22;5101;49.038;8.710;2023-11-19T04:45:06;12.30;99.90
10123;DHT22;5101;49.038;8.710;2023-11-19T04:47:33;12.30;99.90
10123;DHT22;5101;49.038;8.710;2023-11-19T04:49:59;12.40;99.90
10123;DHT22;5101;49.038;8.710;2023-11-19T04:52:25;12.40;99.90
10123;DHT22;5101;49.038;8.710;2023-11-19T04:54:50;12.40;99.90
10123;DHT22;5101;49.038;8.710;2023-11-19T04:57:17;12.40;99.90
10123;DHT22;5101;49.038;8.710;2023-11-19T04:59:42;12.40;99.90
10123;DHT22;5101;49.038;8.710;2023-11-19T05:02:09;12.40;99.90
10123;DHT22;5101;49.038;8.710;2023-11-19T05:04:34;12.50;99.90
10123;DHT22;5101;49.038;8.710;2023-11-19T05:07:00;12.50;99.90
10123;DHT22;5101;49.038;8.710;2023-11-19T05:09:26;12.50;99.90
10123;DHT22;5101;49.038;8.710;2023-11-19T05:11:51;12.50;99.90
10123;DHT22;5101;49.038;8.710;2023-11-19T05:14:17;12.50;99.90
10123;DHT22;5101;49.038;8.710;2023-11-19T05:16:44;12.60;99.90
10123;DHT22;5101;49.038;8.710;2023-11-19T05:19:09;12.60;99.90
10123;DHT22;5101;49.038;8.710;2023-11-19T05:21:35;12.60;99.90
10123;DHT22;5101;49.038;8.710;2023-11-19T05:24:04;12.60;99.90
10123;DHT22;5101;49.038;8.710;2023-11-19T05:26:30;12.70;99.90
10123;DHT22;5101;49.038;8.710;2023-11-19T05:28:55;12.70;99.90
10123;DHT22;5101;49.038;8.710;2023-11-19T05:31:21;12.70;99.90
10123;DHT22;5101;49.038;8.710;2023-11-19T05:33:46;12.70;99.90
10123;DHT22;5101;49.038;8.710;2023-11-19T05:36:12;12.70;99.90
10123;DHT22;5101;49.038;8.710;2023-11-19T05:38:38;12.70;99.90
10123;DHT22;5101;49.038;8.710;2023-11-19T05:41:04;12.70;99.90
10123;DHT22;5101;49.038;8.710;2023-11-19T05:43:30;12.70;99.90
10123;DHT22;5101;49.038;8.710;2023-11-19T05:45:55;12.80;99.90
10123;DHT22;5101;49.038;8.710;2023-11-19T05:48:21;12.80;99.90
10123;DHT22;5101;49.038;8.710;2023-11-19T05:50:46;12.80;99.90
10123;DHT22;5101;49.038;8.710;2023-11-19T05:53:14;12.80;99.90
10123;DHT22;5101;49.038;8.710;2023-11-19T05:55:40;12.80;99.90
10123;DHT22;5101;49.038;8.710;2023-11-19T05:58:14;12.80;99.90
10123;DHT22;5101;49.038;8.710;2023-11-19T06:00:39;12.80;99.90
10123;DHT22;5101;49.038;8.710;2023-11-19T06:03:06;12.90;99.90
10123;DHT22;5101;49.038;8.710;2023-11-19T06:05:32;12.80;99.90
10123;DHT22;5101;49.038;8.710;2023-11-19T06:07:58;12.90;99.90
10123;DHT22;5101;49.038;8.710;2023-11-19T06:10:23;12.90;99.90
10123;DHT22;5101;49.038;8.710;2023-11-19T06:12:58;12.90;99.90
10123;DHT22;5101;49.038;8.710;2023-11-19T06:15:25;12.90;99.90
10123;DHT22;5101;49.038;8.710;2023-11-19T06:17:51;12.90;99.90
10123;DHT22;5101;49.038;8.710;2023-11-19T06:20:17;12.90;99.90
10123;DHT22;5101;49.038;8.710;2023-11-19T06:22:45;12.90;99.90
10123;DHT22;5101;49.038;8.710;2023-11-19T06:25:11;13.00;99.90
10123;DHT22;5101;49.038;8.710;2023-11-19T06:27:37;13.00;99.90
10123;DHT22;5101;49.038;8.710;2023-11-19T06:30:03;13.00;99.90
10123;DHT22;5101;49.038;8.710;2023-11-19T06:32:28;13.00;99.90
10123;DHT22;5101;49.038;8.710;2023-11-19T06:34:54;13.00;99.90
10123;DHT22;5101;49.038;8.710;2023-11-19T06:37:20;13.00;99.90
10123;DHT22;5101;49.038;8.710;2023-11-19T06:39:45;13.10;99.90
10123;DHT22;5101;49.038;8.710;2023-11-19T06:42:11;13.10;99.90
10123;DHT22;5101;49.038;8.710;2023-11-19T06:44:36;13.10;99.90
10123;DHT22;5101;49.038;8.710;2023-11-19T06:47:02;13.10;99.90
10123;DHT22;5101;49.038;8.710;2023-11-19T06:49:27;13.10;99.90
10123;DHT22;5101;49.038;8.710;2023-11-19T06:51:53;13.20;99.90
10123;DHT22;5101;49.038;8.710;2023-11-19T06:54:18;13.10;99.90
10123;DHT22;5101;49.038;8.710;2023-11-19T06:56:44;13.20;99.90
10123;DHT22;5101;49.038;8.710;2023-11-19T06:59:09;13.20;99.90
10123;DHT22;5101;49.038;8.710;2023-11-19T07:01:36;13.20;99.90
10123;DHT22;5101;49.038;8.710;2023-11-19T07:04:02;13.20;99.90
10123;DHT22;5101;49.038;8.710;2023-11-19T07:06:33;13.30;99.90
10123;DHT22;5101;49.038;8.710;2023-11-19T07:08:59;13.30;99.90
10123;DHT22;5101;49.038;8.710;2023-11-19T07:11:24;13.30;99.90
10123;DHT22;5101;49.038;8.710;2023-11-19T07:13:50;13.30;99.90
10123;DHT22;5101;49.038;8.710;2023-11-19T07:16:15;13.40;99.90
10123;DHT22;5101;49.038;8.710;2023-11-19T07:18:41;13.40;99.90
10123;DHT22;5101;49.038;8.710;2023-11-19T07:21:09;13.40;99.90
10123;DHT22;5101;49.038;8.710;2023-11-19T07:23:36;13.40;99.90
10123;DHT22;5101;49.038;8.710;2023-11-19T07:26:04;13.50;99.90
10123;DHT22;5101;49.038;8.710;2023-11-19T07:28:29;13.50;99.90
10123;DHT22;5101;49.038;8.710;2023-11-19T07:30:55;13.50;99.90
10123;DHT22;5101;49.038;8.710;2023-11-19T07:33:21;13.50;99.90
10123;DHT22;5101;49.038;8.710;2023-11-19T07:35:47;13.50;99.90
10123;DHT22;5101;49.038;8.710;2023-11-19T07:38:13;13.50;99.90
10123;DHT22;5101;49.038;8.710;2023-11-19T07:40:38;13.50;99.90
10123;DHT22;5101;49.038;8.710;2023-11-19T07:43:04;13.50;99.90
10123;DHT22;5101;49.038;8.710;2023-11-19T07:45:29;13.50;99.90
10123;DHT22;5101;49.038;8.710;2023-11-19T07:47:55;13.40;99.90
10123;DHT22;5101;49.038;8.710;2023-11-19T07:50:20;13.50;99.90
10123;DHT22;5101;49.038;8.710;2023-11-19T07:52:46;13.40;99.90
10123;DHT22;5101;49.038;8.710;2023-11-19T07:55:11;13.50;99.90
10123;DHT22;5101;49.038;8.710;2023-11-19T07:57:37;13.40;99.90
10123;DHT22;5101;49.038;8.710;2023-11-19T08:00:03;13.40;99.90
10123;DHT22;5101;49.038;8.710;2023-11-19T08:02:29;13.50;99.90
10123;DHT22;5101;49.038;8.710;2023-11-19T08:04:54;13.50;99.90
10123;DHT22;5101;49.038;8.710;2023-11-19T08:07:21;13.50;99.90
10123;DHT22;5101;49.038;8.710;2023-11-19T08:09:47;13.50;99.90
10123;DHT22;5101;49.038;8.710;2023-11-19T08:12:13;13.50;99.90
10123;DHT22;5101;49.038;8.710;2023-11-19T08:14:41;13.50;99.90
10123;DHT22;5101;49.038;8.710;2023-11-19T08:17:06;13.60;99.90
10123;DHT22;5101;49.038;8.710;2023-11-19T08:19:32;13.60;99.90
10123;DHT22;5101;49.038;8.710;2023-11-19T08:21:58;13.60;99.90
10123;DHT22;5101;49.038;8.710;2023-11-19T08:24:23;13.60;99.90
10123;DHT22;5101;49.038;8.710;2023-11-19T08:26:49;13.60;99.90
10123;DHT22;5101;49.038;8.710;2023-11-19T08:29:14;13.70;99.90
10123;DHT22;5101;49.038;8.710;2023-11-19T08:31:40;13.60;99.90
10123;DHT22;5101;49.038;8.710;2023-11-19T08:34:06;13.60;99.90
10123;DHT22;5101;49.038;8.710;2023-11-19T08:36:34;13.70;99.90
10123;DHT22;5101;49.038;8.710;2023-11-19T08:39:00;13.60;99.90
10123;DHT22;5101;49.038;8.710;2023-11-19T08:41:25;13.70;99.90
10123;DHT22;5101;49.038;8.710;2023-11-19T08:43:51;13.70;99.90
10123;DHT22;5101;49.038;8.710;2023-11-19T08:46:17;13.80;99.90
10123;DHT22;5101;49.038;8.710;2023-11-19T08:48:42;13.90;99.90
10123;DHT22;5101;49.038;8.710;2023-11-19T08:51:08;14.10;99.90
10123;DHT22;5101;49.038;8.710;2023-11-19T08:53:34;14.30;99.90
10123;DHT22;5101;49.038;8.710;2023-11-19T08:55:59;14.50;99.90
10123;DHT22;5101;49.038;8.710;2023-11-19T08:58:26;14.70;99.90
10123;DHT22;5101;49.038;8.710;2023-11-19T09:00:51;14.80;99.90
10123;DHT22;5101;49.038;8.710;2023-11-19T09:03:16;14.80;99.90
10123;DHT22;5101;49.038;8.710;2023-11-19T09:05:42;14.90;99.90
10123;DHT22;5101;49.038;8.710;2023-11-19T09:08:07;14.90;99.90
10123;DHT22;5101;49.038;8.710;2023-11-19T09:10:33;14.90;99.90
10123;DHT22;5101;49.038;8.710;2023-11-19T09:12:59;14.90;99.90
10123;DHT22;5101;49.038;8.710;2023-11-19T09:15:24;14.90;99.90
10123;DHT22;5101;49.038;8.710;2023-11-19T09:17:50;14.90;99.90
10123;DHT22;5101;49.038;8.710;2023-11-19T09:20:16;14.80;99.90
10123;DHT22;5101;49.038;8.710;2023-11-19T09:22:42;14.80;99.90
10123;DHT22;5101;49.038;8.710;2023-11-19T09:25:08;14.70;99.90
10123;DHT22;5101;49.038;8.710;2023-11-19T09:27:33;14.80;99.90
10123;DHT22;5101;49.038;8.710;2023-11-19T09:29:59;14.80;99.90
10123;DHT22;5101;49.038;8.710;2023-11-19T09:32:24;14.70;99.90
10123;DHT22;5101;49.038;8.710;2023-11-19T09:34:50;14.80;99.90
10123;DHT22;5101;49.038;8.710;2023-11-19T09:37:16;14.90;99.90
10123;DHT22;5101;49.038;8.710;2023-11-19T09:39:42;14.90;99.90
10123;DHT22;5101;49.038;8.710;2023-11-19T09:42:09;15.00;99.90
10123;DHT22;5101;49.038;8.710;2023-11-19T09:44:36;15.00;99.90
10123;DHT22;5101;49.038;8.710;2023-11-19T09:47:03;15.10;99.90
10123;DHT22;5101;49.038;8.710;2023-11-19T09:49:29;15.10;99.90
10123;DHT22;5101;49.038;8.710;2023-11-19T09:51:55;15.10;99.90
10123;DHT22;5101;49.038;8.710;2023-11-19T09:54:21;15.20;99.90
10123;DHT22;5101;49.038;8.710;2023-11-19T09:56:47;15.30;99.90
10123;DHT22;5101;49.038;8.710;2023-11-19T09:59:14;15.30;99.90
10123;DHT22;5101;49.038;8.710;2023-11-19T10:01:39;15.40;99.90
10123;DHT22;5101;49.038;8.710;2023-11-19T10:04:06;15.40;99.90
10123;DHT22;5101;49.038;8.710;2023-11-19T10:06:32;15.40;99.90
10123;DHT22;5101;49.038;8.710;2023-11-19T10:08:58;15.50;99.90
10123;DHT22;5101;49.038;8.710;2023-11-19T10:11:24;15.50;99.90
10123;DHT22;5101;49.038;8.710;2023-11-19T10:13:51;15.60;99.90
10123;DHT22;5101;49.038;8.710;2023-11-19T10:16:18;15.70;99.90
10123;DHT22;5101;49.038;8.710;2023-11-19T10:18:48;15.80;99.90
10123;DHT22;5101;49.038;8.710;2023-11-19T10:21:17;16.00;99.90
10123;DHT22;5101;49.038;8.710;2023-11-19T10:23:56;16.10;99.90
10123;DHT22;5101;49.038;8.710;2023-11-19T10:26:26;16.30;99.90
10123;DHT22;5101;49.038;8.710;2023-11-19T10:28:52;16.50;99.90
10123;DHT22;5101;49.038;8.710;2023-11-19T10:31:19;16.70;99.90
10123;DHT22;5101;49.038;8.710;2023-11-19T10:33:46;16.80;99.90
10123;DHT22;5101;49.038;8.710;2023-11-19T10:36:12;16.90;99.90
10123;DHT22;5101;49.038;8.710;2023-11-19T10:38:39;16.90;99.90
10123;DHT22;5101;49.038;8.710;2023-11-19T10:41:05;16.90;99.90
10123;DHT22;5101;49.038;8.710;2023-11-19T10:43:31;16.90;99.90
10123;DHT22;5101;49.038;8.710;2023-11-19T10:46:12;16.90;99.90
10123;DHT22;5101;49.038;8.710;2023-11-19T10:48:38;16.90;99.90
10123;DHT22;5101;49.038;8.710;2023-11-19T10:51:05;16.90;99.90
10123;DHT22;5101;49.038;8.710;2023-11-19T10:53:36;16.90;99.90
10123;DHT22;5101;49.038;8.710;2023-11-19T10:56:05;16.90;99.90
10123;DHT22;5101;49.038;8.710;2023-11-19T10:58:32;16.80;99.90
10123;DHT22;5101;49.038;8.710;2023-11-19T11:01:01;16.80;99.90
10123;DHT22;5101;49.038;8.710;2023-11-19T11:03:37;16.80;99.90
10123;DHT22;5101;49.038;8.710;2023-11-19T11:06:05;16.90;99.90
10123;DHT22;5101;49.038;8.710;2023-11-19T11:08:31;17.00;99.90
10123;DHT22;5101;49.038;8.710;2023-11-19T11:10:57;17.00;99.90
10123;DHT22;5101;49.038;8.710;2023-11-19T11:13:26;17.10;99.90
10123;DHT22;5101;49.038;8.710;2023-11-19T11:15:56;17.10;99.80
10123;DHT22;5101;49.038;8.710;2023-11-19T11:18:25;16.90;99.60
10123;DHT22;5101;49.038;8.710;2023-11-19T11:20:54;16.80;99.60
10123;DHT22;5101;49.038;8.710;2023-11-19T11:29:05;16.60;99.90
10123;DHT22;5101;49.038;8.710;2023-11-19T11:32:16;16.50;99.90
10123;DHT22;5101;49.038;8.710;2023-11-19T11:35:02;16.40;99.90
10123;DHT22;5101;49.038;8.710;2023-11-19T11:37:36;16.50;99.90
10123;DHT22;5101;49.038;8.710;2023-11-19T11:40:03;16.30;99.90
10123;DHT22;5101;49.038;8.710;2023-11-19T11:42:38;16.30;99.90
10123;DHT22;5101;49.038;8.710;2023-11-19T11:45:05;16.20;99.90
10123;DHT22;5101;49.038;8.710;2023-11-19T11:50:11;16.20;99.90
10123;DHT22;5101;49.038;8.710;2023-11-19T11:55:24;16.30;99.90
10123;DHT22;5101;49.038;8.710;2023-11-19T11:57:50;16.30;99.90
10123;DHT22;5101;49.038;8.710;2023-11-19T12:02:59;16.30;99.90
10123;DHT22;5101;49.038;8.710;2023-11-19T12:05:25;16.40;99.90
10123;DHT22;5101;49.038;8.710;2023-11-19T12:08:04;16.40;99.90
10123;DHT22;5101;49.038;8.710;2023-11-19T12:10:37;16.40;99.90
10123;DHT22;5101;49.038;8.710;2023-11-19T12:13:06;16.40;99.90
10123;DHT22;5101;49.038;8.710;2023-11-19T12:15:32;16.50;99.90
10123;DHT22;5101;49.038;8.710;2023-11-19T12:17:58;16.50;99.90
10123;DHT22;5101;49.038;8.710;2023-11-19T12:20:25;16.60;99.90
10123;DHT22;5101;49.038;8.710;2023-11-19T12:22:52;16.60;99.90
10123;DHT22;5101;49.038;8.710;2023-11-19T12:25:18;16.70;99.90
10123;DHT22;5101;49.038;8.710;2023-11-19T12:27:51;16.80;99.90
10123;DHT22;5101;49.038;8.710;2023-11-19T12:30:22;16.80;99.90
10123;DHT22;5101;49.038;8.710;2023-11-19T12:32:49;16.80;99.60
10123;DHT22;5101;49.038;8.710;2023-11-19T12:35:15;16.70;99.40
10123;DHT22;5101;49.038;8.710;2023-11-19T12:37:45;16.60;99.30
10123;DHT22;5101;49.038;8.710;2023-11-19T12:40:15;16.60;99.10
10123;DHT22;5101;49.038;8.710;2023-11-19T12:42:43;16.60;99.20
10123;DHT22;5101;49.038;8.710;2023-11-19T12:45:09;16.60;99.20
10123;DHT22;5101;49.038;8.710;2023-11-19T12:47:38;16.60;99.30
10123;DHT22;5101;49.038;8.710;2023-11-19T12:50:04;16.60;99.30
10123;DHT22;5101;49.038;8.710;2023-11-19T12:52:30;16.60;99.40
10123;DHT22;5101;49.038;8.710;2023-11-19T12:54:56;16.60;99.50
10123;DHT22;5101;49.038;8.710;2023-11-19T12:57:39;16.60;99.60
10123;DHT22;5101;49.038;8.710;2023-11-19T13:00:05;16.70;99.70
10123;DHT22;5101;49.038;8.710;2023-11-19T13:02:45;16.80;99.80
10123;DHT22;5101;49.038;8.710;2023-11-19T13:05:29;16.90;99.60
10123;DHT22;5101;49.038;8.710;2023-11-19T13:08:06;17.10;99.40
10123;DHT22;5101;49.038;8.710;2023-11-19T13:10:33;17.20;98.90
10123;DHT22;5101;49.038;8.710;2023-11-19T13:13:08;17.20;98.20
10123;DHT22;5101;49.038;8.710;2023-11-19T13:15:35;17.20;97.60
10123;DHT22;5101;49.038;8.710;2023-11-19T13:18:01;17.10;97.20
10123;DHT22;5101;49.038;8.710;2023-11-19T13:20:28;17.10;96.90
10123;DHT22;5101;49.038;8.710;2023-11-19T13:23:04;17.10;96.90
10123;DHT22;5101;49.038;8.710;2023-11-19T13:25:30;17.00;96.70
10123;DHT22;5101;49.038;8.710;2023-11-19T13:27:57;17.10;96.30
10123;DHT22;5101;49.038;8.710;2023-11-19T13:30:23;17.00;95.90
10123;DHT22;5101;49.038;8.710;2023-11-19T13:32:50;17.10;95.60
10123;DHT22;5101;49.038;8.710;2023-11-19T13:35:16;17.00;95.20
10123;DHT22;5101;49.038;8.710;2023-11-19T13:37:43;17.00;95.30
10123;DHT22;5101;49.038;8.710;2023-11-19T13:40:09;17.00;95.20
10123;DHT22;5101;49.038;8.710;2023-11-19T13:42:36;17.00;95.10
10123;DHT22;5101;49.038;8.710;2023-11-19T13:45:02;17.10;95.30
10123;DHT22;5101;49.038;8.710;2023-11-19T13:47:28;17.20;95.10
10123;DHT22;5101;49.038;8.710;2023-11-19T13:49:54;17.20;94.80
10123;DHT22;5101;49.038;8.710;2023-11-19T13:52:19;17.10;94.50
10123;DHT22;5101;49.038;8.710;2023-11-19T13:54:45;17.10;94.50
10123;DHT22;5101;49.038;8.710;2023-11-19T13:57:10;17.10;94.20
10123;DHT22;5101;49.038;8.710;2023-11-19T13:59:39;17.00;94.20
10123;DHT22;5101;49.038;8.710;2023-11-19T14:02:05;16.90;94.10
10123;DHT22;5101;49.038;8.710;2023-11-19T14:04:33;16.80;94.00
10123;DHT22;5101;49.038;8.710;2023-11-19T14:06:58;16.80;93.80
10123;DHT22;5101;49.038;8.710;2023-11-19T14:09:24;16.70;93.70
10123;DHT22;5101;49.038;8.710;2023-11-19T14:11:49;16.70;93.60
10123;DHT22;5101;49.038;8.710;2023-11-19T14:14:16;16.70;93.50
10123;DHT22;5101;49.038;8.710;2023-11-19T14:16:42;16.70;93.50
10123;DHT22;5101;49.038;8.710;2023-11-19T14:19:07;16.50;93.50
10123;DHT22;5101;49.038;8.710;2023-11-19T14:21:33;16.40;93.70
10123;DHT22;5101;49.038;8.710;2023-11-19T14:23:58;16.30;93.90
10123;DHT22;5101;49.038;8.710;2023-11-19T14:26:24;16.30;94.00
10123;DHT22;5101;49.038;8.710;2023-11-19T14:28:49;16.20;94.00
10123;DHT22;5101;49.038;8.710;2023-11-19T14:31:15;16.10;94.10
10123;DHT22;5101;49.038;8.710;2023-11-19T14:33:40;16.10;94.20
10123;DHT22;5101;49.038;8.710;2023-11-19T14:36:06;16.00;94.40
10123;DHT22;5101;49.038;8.710;2023-11-19T14:38:32;16.00;94.50
10123;DHT22;5101;49.038;8.710;2023-11-19T14:40:58;15.90;94.70
10123;DHT22;5101;49.038;8.710;2023-11-19T14:43:25;15.90;94.90
10123;DHT22;5101;49.038;8.710;2023-11-19T14:45:50;15.80;95.00
10123;DHT22;5101;49.038;8.710;2023-11-19T14:48:16;15.80;95.10
10123;DHT22;5101;49.038;8.710;2023-11-19T14:50:43;15.70;95.30
10123;DHT22;5101;49.038;8.710;2023-11-19T14:53:10;15.70;95.70
10123;DHT22;5101;49.038;8.710;2023-11-19T14:55:36;15.70;96.20
10123;DHT22;5101;49.038;8.710;2023-11-19T14:58:02;15.60;96.50
10123;DHT22;5101;49.038;8.710;2023-11-19T15:00:27;15.60;97.10
10123;DHT22;5101;49.038;8.710;2023-11-19T15:02:53;15.60;97.50
10123;DHT22;5101;49.038;8.710;2023-11-19T15:05:18;15.60;97.90
10123;DHT22;5101;49.038;8.710;2023-11-19T15:07:45;15.50;98.30
10123;DHT22;5101;49.038;8.710;2023-11-19T15:10:10;15.50;98.50
10123;DHT22;5101;49.038;8.710;2023-11-19T15:12:38;15.50;98.60
10123;DHT22;5101;49.038;8.710;2023-11-19T15:15:08;15.50;98.70
10123;DHT22;5101;49.038;8.710;2023-11-19T15:17:35;15.50;98.80
10123;DHT22;5101;49.038;8.710;2023-11-19T15:20:02;15.40;98.80
10123;DHT22;5101;49.038;8.710;2023-11-19T15:22:28;15.50;98.80
10123;DHT22;5101;49.038;8.710;2023-11-19T15:24:53;15.40;98.70
10123;DHT22;5101;49.038;8.710;2023-11-19T15:27:19;15.30;98.70
10123;DHT22;5101;49.038;8.710;2023-11-19T15:29:44;15.30;98.70
10123;DHT22;5101;49.038;8.710;2023-11-19T15:32:10;15.30;98.70
10123;DHT22;5101;49.038;8.710;2023-11-19T15:34:36;15.30;98.60
10123;DHT22;5101;49.038;8.710;2023-11-19T15:37:03;15.30;98.60
10123;DHT22;5101;49.038;8.710;2023-11-19T15:39:29;15.20;98.30
10123;DHT22;5101;49.038;8.710;2023-11-19T15:41:55;15.20;98.10
10123;DHT22;5101;49.038;8.710;2023-11-19T15:44:22;15.20;98.00
10123;DHT22;5101;49.038;8.710;2023-11-19T15:46:47;15.20;97.80
10123;DHT22;5101;49.038;8.710;2023-11-19T15:49:13;15.10;97.70
10123;DHT22;5101;49.038;8.710;2023-11-19T15:51:38;15.10;97.40
10123;DHT22;5101;49.038;8.710;2023-11-19T15:54:04;15.10;97.30
10123;DHT22;5101;49.038;8.710;2023-11-19T15:56:30;15.00;97.10
10123;DHT22;5101;49.038;8.710;2023-11-19T15:58:56;15.00;97.00
10123;DHT22;5101;49.038;8.710;2023-11-19T16:01:22;15.00;96.90